Sarah Desgagnes — XJAB — position and weather

sailwx.info

Track history (hours):
 
Tides and Currents Weather Stations Pressure Air Temp Water Temp Dewpoint Dewpoint Depression Visibility Wind Speed Wind Dir Waves Ship Positions

Sarah Desgagnes

Last reported at 2016-Dec-04 17:00 UTC. Time now 2016-Dec-04 18:27 UTC.
Position N 49°00' W 066°54'.

Length 147 m; draft 5.5 m.

Type: Ship. MMSI: 316012308.

Wind from 360 at 3 knots

Barometer 1018.9 mb
Air temperature -4.6 ° C
Dewpoint -7.3 ° C

Date/timePositionNaut miles runAvg speedWind from/ knotsBaromVisibWave heightAir tempDewpointWater temp
2016-Dec-04 17:00N 49°00' W 066°54'0 0.0 360 / 31018.9 -4.6-7.3
2016-Dec-04 16:00N 49°00' W 066°54'0 0.0 360 / 51018.6 -4.5-6.9
2016-Dec-04 15:00N 49°00' W 066°54'0 0.0 350 / 71018.7 -4.1-6.3
2016-Dec-04 14:00N 49°00' W 066°54'0 0.0 330 / 81018.5 -3.7-6.4
2016-Dec-04 13:00N 49°00' W 066°54'0 0.0 340 / 51018.0 -3.3-6.0
2016-Dec-04 12:00N 49°00' W 066°54'0 0.0 010 / 31017.4 -3.3-5.9
2016-Dec-04 11:00N 49°00' W 066°54'0 0.0 350 / 51016.9 -3.2-6.0
2016-Dec-04 10:00N 49°00' W 066°54'0 0.0 350 / 41016.6 -3.1-5.9
2016-Dec-04 09:00N 49°00' W 066°54'0 0.0 350 / 61016.5 -2.9-5.1
2016-Dec-04 08:00N 49°00' W 066°54'0 0.0 350 / 51016.0 -2.6-4.7
2016-Dec-04 07:00N 49°00' W 066°54'0 0.0 350 / 51015.7 -2.3-3.9
2016-Dec-04 06:00N 49°00' W 066°54'0 0.0 350 / 41015.2 -2.2-3.8
2016-Dec-04 05:00N 49°00' W 066°54'0 0.0 350 / 41014.7 -1.9-3.8
2016-Dec-04 04:00N 49°00' W 066°54'0 0.0 340 / 61014.4 -1.7-3.3
2016-Dec-04 03:00N 49°00' W 066°54'0 0.0 350 / 71013.8 -1.5-2.3
2016-Dec-04 02:00N 49°00' W 066°54'0 0.0 350 / 71013.6 -1.0-1.1
2016-Dec-04 01:00N 49°00' W 066°54'0 0.0 350 / 71013.2 -0.8-0.9
2016-Dec-04 00:00N 49°00' W 066°54'0 0.0 350 / 61013.0 -0.8-0.8
2016-Dec-03 23:00N 49°00' W 066°54'0 0.0 350 / 61012.4 -0.7-0.7
2016-Dec-03 22:00N 49°00' W 066°54'0 0.0 350 / 61011.9 -0.5-0.5
2016-Dec-03 21:00N 49°00' W 066°54'0 0.0 350 / 71011.3 -0.7-0.6
2016-Dec-03 20:00N 49°00' W 066°54'0 0.0 350 / 71010.8 -0.6-0.5
2016-Dec-03 19:00N 49°00' W 066°54'0 0.0 020 / 41010.1 -0.6-0.5
2016-Dec-03 18:00N 49°00' W 066°54'0 0.0 040 / 21009.6 -0.5-0.4
2016-Dec-03 17:00N 49°00' W 066°54'0 0.0 030 / 31009.4 -0.3-0.2
2016-Dec-03 16:00N 49°00' W 066°54'0 0.0 030 / 31009.2 -0.4-0.3
2016-Dec-03 15:00N 49°00' W 066°54'0 0.0 030 / 41009.1 -0.1-0.0
2016-Dec-03 14:00N 49°00' W 066°54'0 0.0 020 / 41008.7 0.1 0.2
2016-Dec-03 13:00N 49°00' W 066°54'0 0.0 020 / 41008.1 -0.0 0.1
2016-Dec-03 12:00N 49°00' W 066°54'0 0.0 010 / 111007.5 0.2 0.3
2016-Dec-03 11:00N 49°00' W 066°54'0 0.0 010 / 81006.9 0.4 0.5
2016-Dec-03 10:00N 49°00' W 066°54'0 0.0 030 / 31006.2 0.2 0.3
2016-Dec-03 09:00N 49°00' W 066°54'0 0.0 040 / 151005.9 -0.0 0.1
2016-Dec-03 08:00N 49°00' W 066°54'0 0.0 050 / 201005.5 -0.0 0.1
2016-Dec-03 07:00N 49°00' W 066°54'0 0.0 070 / 141005.4 -0.1-0.1
2016-Dec-03 06:00N 49°00' W 066°54'0 0.0 080 / 71005.2 -0.4-0.4
2016-Dec-03 05:00N 49°00' W 066°54'0 0.0 070 / 91004.9 -0.3-0.3
2016-Dec-03 04:00N 49°00' W 066°54'0 0.0 080 / 81005.0 -0.4-0.3
2016-Dec-03 03:00N 49°00' W 066°54'0 0.0 080 / 81005.0 -0.4-0.4
2016-Dec-03 02:00N 49°00' W 066°54'0 0.0 070 / 111005.0 -0.4-0.3
2016-Dec-03 01:00N 49°00' W 066°54'0 0.0 070 / 81005.2 -0.2-0.2
2016-Dec-03 00:00N 49°00' W 066°54'0 0.0 070 / 121005.1 -0.2-0.2
2016-Dec-02 23:00N 49°00' W 066°54'0 0.0 080 / 101004.8 -0.3-0.2
2016-Dec-02 22:00N 49°00' W 066°54'0 0.0 070 / 121004.7 -0.3-0.2
2016-Dec-02 21:00N 49°00' W 066°54'0 0.0 070 / 121004.4 -0.2-0.2
2016-Dec-02 20:00N 49°00' W 066°54'0 0.0 070 / 131004.3 -0.2-0.2
2016-Dec-02 19:00N 49°00' W 066°54'0 0.0 070 / 151004.0 -0.3-0.2
2016-Dec-02 18:00N 49°00' W 066°54'0 0.0 060 / 161003.8 -0.2-0.1
2016-Dec-02 17:00N 49°00' W 066°54'0 0.0 060 / 171003.9 -0.0-0.0
2016-Dec-02 16:00N 49°00' W 066°54'0 0.0 060 / 111003.8 0.2 0.3
2016-Dec-02 15:00N 49°00' W 066°54'0 0.0 080 / 91003.8 0.2 0.2
2016-Dec-02 14:00N 49°00' W 066°54'0 0.0 090 / 51003.5 -0.2-0.1
2016-Dec-02 13:00N 49°00' W 066°54'0 0.0 070 / 131002.9 -0.3-0.2
2016-Dec-02 12:00N 49°00' W 066°54'0 0.0 070 / 151002.3 -0.3-0.2
2016-Dec-02 11:00N 49°00' W 066°54'0 0.0 060 / 251001.5 -0.3-0.2
2016-Dec-02 10:00N 49°00' W 066°54'0 0.0 060 / 301001.2 -0.4-0.3
2016-Dec-02 09:00N 49°00' W 066°54'0 0.0 060 / 271001.2 -0.4-0.4
2016-Dec-02 08:00N 49°00' W 066°54'0 0.0 060 / 291000.7 -0.5-0.4
2016-Dec-02 07:00N 49°00' W 066°54'0 0.0 060 / 331000.2 -0.4-0.3
2016-Dec-02 06:00N 49°00' W 066°54'0 0.0 060 / 271000.0 -0.5-0.4
2016-Dec-02 05:00N 49°00' W 066°54'0 0.0 060 / 26999.9 -0.2-0.2
2016-Dec-02 04:00N 49°00' W 066°54'0 0.0 060 / 211000.1 0.1 0.2
2016-Dec-02 03:00N 49°00' W 066°54'0 0.0 070 / 181000.0 -0.0 0.1
2016-Dec-02 02:00N 49°00' W 066°54'0 0.0 070 / 181000.3 -0.1-0.0
2016-Dec-02 01:00N 49°00' W 066°54'0 0.0 060 / 221000.5 0.1 0.2
2016-Dec-02 00:00N 49°00' W 066°54'0 0.0 060 / 241000.7 0.1 0.2
2016-Dec-01 23:00N 49°00' W 066°54'0 0.0 060 / 211001.3 -0.0-0.0
2016-Dec-01 22:00N 49°00' W 066°54'0 0.0 060 / 211001.9 -0.2-0.1
2016-Dec-01 21:00N 49°00' W 066°54'0 0.0 060 / 251002.7 -0.2-0.1
2016-Dec-01 20:00N 49°00' W 066°54'0 0.0 060 / 241003.7 -0.2-0.2
2016-Dec-01 19:00N 49°00' W 066°54'0 0.0 060 / 181005.4 -0.7-0.7
2016-Dec-01 18:00N 49°00' W 066°54'0 0.0 060 / 151006.7 -0.8-0.7
2016-Dec-01 17:00N 49°00' W 066°54'0 0.0 060 / 181007.8 -0.7-0.7
2016-Dec-01 16:00N 49°00' W 066°54'0 0.0 090 / 61010.2 -0.3-0.9
2016-Dec-01 15:00N 49°00' W 066°54'0 0.0 150 / 21012.0 0.1-2.3
2016-Dec-01 14:00N 49°00' W 066°54'0 0.0 170 / 21013.0 -0.2-2.4
2016-Dec-01 13:00N 49°00' W 066°54'0 0.0 140 / 31013.8 -0.8-2.6
2016-Dec-01 12:00N 49°00' W 066°54'0 0.0 070 / 111014.4 -0.7-2.4
2016-Dec-01 11:00N 49°00' W 066°54'0 0.0 100 / 81015.1 -0.2-2.5
2016-Dec-01 10:00N 49°00' W 066°54'0 0.0 140 / 101016.6 -0.0-2.0
2016-Dec-01 09:00N 49°00' W 066°54'0 0.0 130 / 111017.5 0.4-1.9
2016-Dec-01 07:00N 49°00' W 066°54'0 0.0 100 / 61019.7 0.3-1.3
2016-Dec-01 06:00N 49°00' W 066°54'0 0.0 140 / 101019.7 1.0-1.5
2016-Dec-01 05:00N 49°00' W 066°54'0 0.0 100 / 81020.0 0.6-1.1
2016-Dec-01 04:00N 49°00' W 066°54'0 0.0 060 / 91021.1 1.0-0.7
2016-Dec-01 03:00N 49°00' W 066°54'0 0.0 140 / 91021.5 1.1-0.8
2016-Dec-01 01:00N 49°00' W 066°54'0 0.0 140 / 101022.3 0.9-1.1
2016-Dec-01 00:00N 49°00' W 066°54'0 0.0 120 / 81021.9 0.5-0.5
2016-Nov-30 23:00N 49°00' W 066°54'0 0.0 100 / 51022.4 0.5-0.2
2016-Nov-30 22:00N 49°00' W 066°54'0 0.0 120 / 31022.1 0.5 0.5
2016-Nov-30 21:00N 49°00' W 066°54'0 0.0 100 / 31021.4 1.0 1.0
2016-Nov-30 20:00N 49°00' W 066°54'0 0.0 090 / 61021.4 1.3 0.7
2016-Nov-30 19:00N 49°00' W 066°54'0 0.0 060 / 91021.0 1.5 1.3
2016-Nov-30 18:00N 49°00' W 066°54'0 0.0 060 / 81020.8 1.6 0.6
2016-Nov-30 17:00N 49°00' W 066°54'0 0.0 050 / 61020.9 1.1 0.3
2016-Nov-30 16:00N 49°00' W 066°54'0 0.0 050 / 31021.0 0.7 0.7
2016-Nov-30 15:00N 49°00' W 066°54'0 0.0 070 / 31021.0 -0.1-0.1
2016-Nov-30 14:00N 49°00' W 066°54'0 0.0 070 / 41020.8 -1.0-1.0
2016-Nov-30 13:00N 49°00' W 066°54'0 0.0 100 / 41020.3 -1.4-1.4
2016-Nov-30 12:00N 49°00' W 066°54'0 0.0 100 / 31020.1 -1.4-1.4
2016-Nov-30 11:00N 49°00' W 066°54'0 0.0 070 / 41019.6 -1.4-1.3
2016-Nov-30 10:00N 49°00' W 066°54'0 0.0 060 / 81019.4 -1.6-1.5
2016-Nov-30 08:00N 49°00' W 066°54'0 0.0 050 / 41019.9 -1.0-1.1
2016-Nov-30 07:00N 49°00' W 066°54'0 0.0 070 / 31020.6 -1.0-1.1
2016-Nov-30 05:00N 49°00' W 066°54'0 0.0 070 / 61020.7 -0.3-2.3
2016-Nov-30 04:00N 49°00' W 066°54'0 0.0 060 / 141021.2 -0.5-3.2
2016-Nov-30 03:00N 49°00' W 066°54'0 0.0 090 / 41021.7 -0.5-2.6
2016-Nov-30 02:00N 49°00' W 066°54'0 0.0 070 / 21022.7 -1.2-2.6
2016-Nov-30 01:00N 49°00' W 066°54'0 0.0 090 / 11023.2 -1.6-2.4
2016-Nov-30 00:00N 49°00' W 066°54'0 0.0 110 / 51023.8 -1.5-3.3
2016-Nov-29 23:00N 49°00' W 066°54'0 0.0 100 / 61023.4 -1.5-3.6
2016-Nov-29 22:00N 49°00' W 066°54'0 0.0 110 / 51023.6 -1.6-3.6
2016-Nov-29 21:00N 49°00' W 066°54'0 0.0 110 / 71023.6 -1.6-3.7
2016-Nov-29 20:00N 49°00' W 066°54'0 0.0 120 / 41023.1 -1.3-3.8
2016-Nov-29 19:00N 49°00' W 066°54'0 0.0 110 / 51024.1 -1.4-4.2
2016-Nov-29 18:00N 49°00' W 066°54'0 0.0 110 / 51023.9 -1.7-4.3
2016-Nov-29 17:00N 49°00' W 066°54'0 0.0 120 / 81024.4 -1.8-4.2
2016-Nov-29 16:00N 49°00' W 066°54'0 0.0 100 / 91024.8 -2.0-4.3
2016-Nov-29 15:00N 49°00' W 066°54'0 0.0 090 / 91025.1 -1.9-4.3
2016-Nov-29 14:00N 49°00' W 066°54'0 0.0 110 / 91025.3 -2.4-4.3
2016-Nov-29 13:00N 49°00' W 066°54'0 0.0 100 / 71024.9 -2.5-4.4
2016-Nov-29 12:00N 49°00' W 066°54'0 0.0 150 / 21025.0 -3.3-4.3
2016-Nov-29 11:00N 49°00' W 066°54'0 0.0 120 / 41023.9 -3.0-4.2
2016-Nov-29 10:00N 49°00' W 066°54'0 0.0 050 / 51023.7 -1.9-5.6
2016-Nov-29 08:00N 49°00' W 066°54'0 0.0 020 / 31022.5 -1.3-4.6
2016-Nov-29 07:00N 49°00' W 066°54'0 0.0 010 / 41022.3 -1.0-4.3
2016-Nov-29 06:00N 49°00' W 066°54'0 0.0 130 / 21022.0 -2.9-4.1
2016-Nov-29 05:00N 49°00' W 066°54'0 0.0 180 / 31021.7 -2.9-4.6
2016-Nov-29 04:00N 49°00' W 066°54'0 0.0 180 / 31021.3 -2.5-4.8
2016-Nov-29 03:00N 49°00' W 066°54'0 0.0 040 / 51020.2 -0.9-5.9
2016-Nov-29 02:00N 49°00' W 066°54'0 0.0 040 / 71019.2 -0.4-5.4
2016-Nov-29 01:00N 49°00' W 066°54'0 0.0 050 / 111018.3 0.2-4.9
2016-Nov-29 00:00N 49°00' W 066°54'0 0.0 040 / 51017.1 1.4-5.7
2016-Nov-28 23:00N 49°00' W 066°54'0 0.0 040 / 121016.2 2.2-5.4
2016-Nov-28 22:00N 49°00' W 066°54'0 0.0 160 / 21015.6 -0.5-2.3
2016-Nov-28 21:00N 49°00' W 066°54'0 0.0 180 / 31015.3 1.0-4.2
2016-Nov-28 20:00N 49°00' W 066°54'0 0.0 010 / 31014.5 4.4-5.4
2016-Nov-28 19:00N 49°00' W 066°54'0 0.0 360 / 31013.5 4.0-6.3
2016-Nov-28 18:00N 49°00' W 066°54'0 0.0 350 / 51012.9 3.5-7.3
2016-Nov-28 17:00N 49°00' W 066°54'0 0.0 350 / 71012.4 3.3-7.8
2016-Nov-28 16:00N 49°00' W 066°54'0 0.0 360 / 91012.2 2.7-7.1
2016-Nov-28 15:00N 49°00' W 066°54'0 0.0 350 / 81012.3 2.3-7.1
2016-Nov-28 14:00N 49°00' W 066°54'0 0.0 320 / 81012.1 2.1-3.9
2016-Nov-28 13:00N 49°00' W 066°54'0 0.0 310 / 51011.7 1.7-3.3
2016-Nov-28 12:00N 49°00' W 066°54'0 0.0 320 / 51011.6 1.6-3.5
2016-Nov-28 11:00N 49°00' W 066°54'0 0.0 320 / 41010.9 1.9-3.0
2016-Nov-28 10:00N 49°00' W 066°54'0 0.0 340 / 71010.0 2.6-3.2
2016-Nov-28 09:00N 49°00' W 066°54'0 0.0 350 / 91009.9 3.2-2.8
2016-Nov-28 08:00N 49°00' W 066°54'0 0.0 350 / 61009.9 2.6-2.0
2016-Nov-28 07:00N 49°00' W 066°54'0 0.0 350 / 41010.3 2.2-2.4
2016-Nov-28 06:00N 49°00' W 066°54'0 0.0 320 / 51010.2 1.8-3.0
2016-Nov-28 05:00N 49°00' W 066°54'0 0.0 320 / 41010.5 1.7-2.9
2016-Nov-28 04:00N 49°00' W 066°54'0 0.0 310 / 61010.7 1.5-2.4
2016-Nov-28 03:00N 49°00' W 066°54'0 0.0 310 / 51011.0 1.3-2.8
2016-Nov-28 02:00N 49°00' W 066°54'0 0.0 320 / 61011.9 1.3-2.5
2016-Nov-28 01:00N 49°00' W 066°54'0 0.0 330 / 21012.4 1.0-4.0
2016-Nov-28 00:00N 49°00' W 066°54'0 0.0 030 / 21013.3 1.0-5.4
2016-Nov-27 23:00N 49°00' W 066°54'0 0.0 040 / 21013.9 0.6-3.2
2016-Nov-27 22:00N 49°00' W 066°54'0 0.0 040 / 51014.5 0.2-1.7
2016-Nov-27 21:00N 49°00' W 066°54'0 0.0 040 / 81015.2 -0.1-1.6
2016-Nov-27 20:00N 49°00' W 066°54'0 0.0 040 / 91015.5 0.3-0.5
2016-Nov-27 19:00N 49°00' W 066°54'0 0.0 050 / 161015.4 0.4-0.3
2016-Nov-27 18:00N 49°00' W 066°54'0 0.0 070 / 171015.7 0.5-0.1
2016-Nov-27 17:00N 49°00' W 066°54'0 0.0 050 / 221016.1 0.7 0.6
2016-Nov-27 16:00N 49°00' W 066°54'0 0.0 050 / 191016.8 0.9 0.9
2016-Nov-27 15:00N 49°00' W 066°54'0 0.0 110 / 21017.8 0.4 0.5
2016-Nov-27 14:00N 49°00' W 066°54'0 0.0 190 / 31018.1 0.3 0.3
2016-Nov-27 13:00N 49°00' W 066°54'0 0.0 150 / 11018.5 0.4 0.4
2016-Nov-27 12:00N 49°00' W 066°54'0 0.0 130 / 21018.8 0.4 0.4
2016-Nov-27 11:00N 49°00' W 066°54'0 0.0 1019.2 0.8 0.8
2016-Nov-27 10:00N 49°00' W 066°54'0 0.0 190 / 31019.4 1.2 1.1
2016-Nov-27 09:00N 49°00' W 066°54'0 0.0 180 / 41019.4 1.2 1.1
2016-Nov-27 08:00N 49°00' W 066°54'0 0.0 150 / 21019.7 0.7 0.8
2016-Nov-27 07:00N 49°00' W 066°54'0 0.0 170 / 11020.1 1.0 1.1
2016-Nov-27 06:00N 49°00' W 066°54'0 0.0 170 / 11019.8 1.0 1.0
2016-Nov-27 05:00N 49°00' W 066°54'0 0.0 110 / 11020.0 1.1 1.2
2016-Nov-27 04:00N 49°00' W 066°54'0 0.0 080 / 21020.5 0.8 0.9
2016-Nov-27 03:00N 49°00' W 066°54'0 0.0 080 / 41020.9 0.3 0.4
2016-Nov-27 02:00N 49°00' W 066°54'0 0.0 1021.5 0.8 0.8
2016-Nov-27 01:00N 49°00' W 066°54'0 0.0 090 / 11021.7 0.6 0.6
2016-Nov-27 00:00N 49°00' W 066°54'0 0.0 120 / 41021.8 1.1 1.0
2016-Nov-26 23:00N 49°00' W 066°54'0 0.0 120 / 51022.0 1.0 1.0
2016-Nov-26 22:00N 49°00' W 066°54'0 0.0 120 / 51021.9 1.2 1.2
2016-Nov-26 21:00N 49°00' W 066°54'0 0.0 120 / 21021.6 1.2 1.1
2016-Nov-26 20:00N 49°00' W 066°54'0 0.0 080 / 31021.5 1.1 0.8
2016-Nov-26 19:00N 49°00' W 066°54'0 0.0 070 / 91021.3 1.0 0.9
2016-Nov-26 18:00N 49°00' W 066°54'0 0.0 050 / 91021.6 0.7 0.7
2016-Nov-26 17:00N 49°00' W 066°54'0 0.0 070 / 71022.1 0.6 0.5
2016-Nov-26 16:00N 49°00' W 066°54'0 0.0 060 / 101022.4 0.2 0.1
2016-Nov-26 15:00N 49°00' W 066°54'0 0.0 060 / 81023.0 -0.4-0.4
2016-Nov-26 14:00N 49°00' W 066°54'0 0.0 090 / 31023.1 -0.8-0.9
2016-Nov-26 13:00N 49°00' W 066°54'0 0.0 060 / 51023.3 -1.1-1.2
2016-Nov-26 12:00N 49°00' W 066°54'0 0.0 080 / 31023.3 -1.4-1.4
2016-Nov-26 11:00N 49°00' W 066°54'0 0.0 100 / 31023.3 -1.3-1.3
2016-Nov-26 10:00N 49°00' W 066°54'0 0.0 130 / 41023.3 -1.3-1.3
2016-Nov-26 09:00N 49°00' W 066°54'0 0.0 120 / 51023.3 -1.5-1.6
2016-Nov-26 08:00N 49°00' W 066°54'0 0.0 120 / 41023.3 -1.5-1.5
2016-Nov-26 07:00N 49°00' W 066°54'0 0.0 090 / 31023.6 -1.6-1.7
2016-Nov-26 06:00N 49°00' W 066°54'0 0.0 120 / 51023.7 -1.4-1.5
2016-Nov-26 05:00N 49°00' W 066°54'0 0.0 120 / 41023.8 -1.5-1.5
2016-Nov-26 04:00N 49°00' W 066°54'0 0.0 120 / 51024.2 -1.5-1.5
2016-Nov-26 03:00N 49°00' W 066°54'0 0.0 130 / 51024.4 -1.1-1.2
2016-Nov-26 02:00N 49°00' W 066°54'0 0.0 130 / 51025.1 -1.1-1.2
2016-Nov-26 01:00N 49°00' W 066°54'0 0.0 120 / 41025.3 -1.3-1.3
2016-Nov-26 00:00N 49°00' W 066°54'0 0.0 130 / 51025.6 -0.9-1.3
2016-Nov-25 23:00N 49°00' W 066°54'0 0.0 130 / 41025.8 -1.0-1.1
2016-Nov-25 22:00N 49°00' W 066°54'0 0.0 180 / 41026.0 -0.7-0.8
2016-Nov-25 21:00N 49°00' W 066°54'0 0.0 150 / 11026.0 -0.5-1.9
2016-Nov-25 20:00N 49°00' W 066°54'0 0.0 130 / 21026.1 -0.6-2.2
2016-Nov-25 19:00N 49°00' W 066°54'0 0.0 180 / 31026.4 -0.4-2.4
2016-Nov-25 18:00N 49°00' W 066°54'0 0.0 180 / 41027.1 -0.2-2.8
2016-Nov-25 17:00N 49°00' W 066°54'0 0.0 200 / 31027.7 -0.2-2.5
2016-Nov-25 16:00N 49°00' W 066°54'0 0.0 210 / 51028.3 -0.4-2.7
2016-Nov-25 15:00N 49°00' W 066°54'0 0.0 160 / 31029.1 -0.7-2.7
2016-Nov-25 14:00N 49°00' W 066°54'0 0.0 180 / 31029.4 -1.2-1.9
2016-Nov-25 13:00N 49°00' W 066°54'0 0.0 180 / 51029.4 -1.6-2.2
2016-Nov-25 12:00N 49°00' W 066°54'0 0.0 160 / 41029.4 -1.8-2.6
2016-Nov-25 11:00N 49°00' W 066°54'0 0.0 180 / 21029.3 -2.1-2.2
2016-Nov-25 10:00N 49°00' W 066°54'0 0.0 140 / 31029.2 -1.9-2.6
2016-Nov-25 09:00N 49°00' W 066°54'0 0.0 160 / 41029.4 -1.8-2.5
2016-Nov-25 08:00N 49°00' W 066°54'0 0.0 170 / 51029.4 -1.9-2.6
2016-Nov-25 07:00N 49°00' W 066°54'0 0.0 180 / 41029.6 -2.4-2.5
2016-Nov-25 06:00N 49°00' W 066°54'0 0.0 190 / 51029.7 -2.3-2.4
2016-Nov-25 05:00N 49°00' W 066°54'0 0.0 180 / 41029.7 -2.3-2.4
2016-Nov-25 04:00N 49°00' W 066°54'0 0.0 180 / 51029.7 -2.1-2.2
2016-Nov-25 03:00N 49°00' W 066°54'0 0.0 170 / 41029.6 -2.1-2.8
2016-Nov-25 02:00N 49°00' W 066°54'0 0.0 180 / 61029.7 -1.9-2.9
2016-Nov-25 01:00N 49°00' W 066°54'0 0.0 170 / 61029.9 -1.8-2.8
2016-Nov-25 00:00N 49°00' W 066°54'0 0.0 130 / 51029.7 -1.6-3.7
2016-Nov-24 23:00N 49°00' W 066°54'0 0.0 130 / 41029.7 -1.6-3.6
2016-Nov-24 22:00N 49°00' W 066°54'0 0.0 110 / 71029.5 -1.6-2.8
2016-Nov-24 21:00N 49°00' W 066°54'0 0.0 350 / 41029.3 -0.5-2.3
2016-Nov-24 20:00N 49°00' W 066°54'0 0.0 340 / 51029.2 -0.8-2.0
2016-Nov-24 19:00N 49°00' W 066°54'0 0.0 360 / 41028.9 -0.7-1.9
2016-Nov-24 18:00N 49°00' W 066°54'0 0.0 340 / 51028.8 -0.8-1.7
2016-Nov-24 17:00N 49°00' W 066°54'   010 / 51029.3 -0.2-1.5
Track history (hours):
 
Tides and Currents Weather Stations Pressure Air Temp Water Temp Dewpoint Dewpoint Depression Visibility Wind Speed Wind Dir Waves Ship Positions

Sarah Desgagnes

Last reported at 2016-Dec-04 17:00 UTC. Time now 2016-Dec-04 18:27 UTC.
Position N 49°00' W 066°54'.

Length 147 m; draft 5.5 m.

Type: Ship. MMSI: 316012308.

Wind from 360 at 3 knots

Barometer 1018.9 mb
Air temperature -4.6 ° C
Dewpoint -7.3 ° C

Date/timePositionNaut miles runAvg speedWind from/ knotsBaromVisibWave heightAir tempDewpointWater temp
2016-Dec-04 17:00N 49°00' W 066°54'0 0.0 360 / 31018.9 -4.6-7.3
2016-Dec-04 16:00N 49°00' W 066°54'0 0.0 360 / 51018.6 -4.5-6.9
2016-Dec-04 15:00N 49°00' W 066°54'0 0.0 350 / 71018.7 -4.1-6.3
2016-Dec-04 14:00N 49°00' W 066°54'0 0.0 330 / 81018.5 -3.7-6.4
2016-Dec-04 13:00N 49°00' W 066°54'0 0.0 340 / 51018.0 -3.3-6.0
2016-Dec-04 12:00N 49°00' W 066°54'0 0.0 010 / 31017.4 -3.3-5.9
2016-Dec-04 11:00N 49°00' W 066°54'0 0.0 350 / 51016.9 -3.2-6.0
2016-Dec-04 10:00N 49°00' W 066°54'0 0.0 350 / 41016.6 -3.1-5.9
2016-Dec-04 09:00N 49°00' W 066°54'0 0.0 350 / 61016.5 -2.9-5.1
2016-Dec-04 08:00N 49°00' W 066°54'0 0.0 350 / 51016.0 -2.6-4.7
2016-Dec-04 07:00N 49°00' W 066°54'0 0.0 350 / 51015.7 -2.3-3.9
2016-Dec-04 06:00N 49°00' W 066°54'0 0.0 350 / 41015.2 -2.2-3.8
2016-Dec-04 05:00N 49°00' W 066°54'0 0.0 350 / 41014.7 -1.9-3.8
2016-Dec-04 04:00N 49°00' W 066°54'0 0.0 340 / 61014.4 -1.7-3.3
2016-Dec-04 03:00N 49°00' W 066°54'0 0.0 350 / 71013.8 -1.5-2.3
2016-Dec-04 02:00N 49°00' W 066°54'0 0.0 350 / 71013.6 -1.0-1.1
2016-Dec-04 01:00N 49°00' W 066°54'0 0.0 350 / 71013.2 -0.8-0.9
2016-Dec-04 00:00N 49°00' W 066°54'0 0.0 350 / 61013.0 -0.8-0.8
2016-Dec-03 23:00N 49°00' W 066°54'0 0.0 350 / 61012.4 -0.7-0.7
2016-Dec-03 22:00N 49°00' W 066°54'0 0.0 350 / 61011.9 -0.5-0.5
2016-Dec-03 21:00N 49°00' W 066°54'0 0.0 350 / 71011.3 -0.7-0.6
2016-Dec-03 20:00N 49°00' W 066°54'0 0.0 350 / 71010.8 -0.6-0.5
2016-Dec-03 19:00N 49°00' W 066°54'0 0.0 020 / 41010.1 -0.6-0.5
2016-Dec-03 18:00N 49°00' W 066°54'0 0.0 040 / 21009.6 -0.5-0.4
2016-Dec-03 17:00N 49°00' W 066°54'0 0.0 030 / 31009.4 -0.3-0.2
2016-Dec-03 16:00N 49°00' W 066°54'0 0.0 030 / 31009.2 -0.4-0.3
2016-Dec-03 15:00N 49°00' W 066°54'0 0.0 030 / 41009.1 -0.1-0.0
2016-Dec-03 14:00N 49°00' W 066°54'0 0.0 020 / 41008.7 0.1 0.2
2016-Dec-03 13:00N 49°00' W 066°54'0 0.0 020 / 41008.1 -0.0 0.1
2016-Dec-03 12:00N 49°00' W 066°54'0 0.0 010 / 111007.5 0.2 0.3
2016-Dec-03 11:00N 49°00' W 066°54'0 0.0 010 / 81006.9 0.4 0.5
2016-Dec-03 10:00N 49°00' W 066°54'0 0.0 030 / 31006.2 0.2 0.3
2016-Dec-03 09:00N 49°00' W 066°54'0 0.0 040 / 151005.9 -0.0 0.1
2016-Dec-03 08:00N 49°00' W 066°54'0 0.0 050 / 201005.5 -0.0 0.1
2016-Dec-03 07:00N 49°00' W 066°54'0 0.0 070 / 141005.4 -0.1-0.1
2016-Dec-03 06:00N 49°00' W 066°54'0 0.0 080 / 71005.2 -0.4-0.4
2016-Dec-03 05:00N 49°00' W 066°54'0 0.0 070 / 91004.9 -0.3-0.3
2016-Dec-03 04:00N 49°00' W 066°54'0 0.0 080 / 81005.0 -0.4-0.3
2016-Dec-03 03:00N 49°00' W 066°54'0 0.0 080 / 81005.0 -0.4-0.4
2016-Dec-03 02:00N 49°00' W 066°54'0 0.0 070 / 111005.0 -0.4-0.3
2016-Dec-03 01:00N 49°00' W 066°54'0 0.0 070 / 81005.2 -0.2-0.2
2016-Dec-03 00:00N 49°00' W 066°54'0 0.0 070 / 121005.1 -0.2-0.2
2016-Dec-02 23:00N 49°00' W 066°54'0 0.0 080 / 101004.8 -0.3-0.2
2016-Dec-02 22:00N 49°00' W 066°54'0 0.0 070 / 121004.7 -0.3-0.2
2016-Dec-02 21:00N 49°00' W 066°54'0 0.0 070 / 121004.4 -0.2-0.2
2016-Dec-02 20:00N 49°00' W 066°54'0 0.0 070 / 131004.3 -0.2-0.2
2016-Dec-02 19:00N 49°00' W 066°54'0 0.0 070 / 151004.0 -0.3-0.2
2016-Dec-02 18:00N 49°00' W 066°54'0 0.0 060 / 161003.8 -0.2-0.1
2016-Dec-02 17:00N 49°00' W 066°54'0 0.0 060 / 171003.9 -0.0-0.0
2016-Dec-02 16:00N 49°00' W 066°54'0 0.0 060 / 111003.8 0.2 0.3
2016-Dec-02 15:00N 49°00' W 066°54'0 0.0 080 / 91003.8 0.2 0.2
2016-Dec-02 14:00N 49°00' W 066°54'0 0.0 090 / 51003.5 -0.2-0.1
2016-Dec-02 13:00N 49°00' W 066°54'0 0.0 070 / 131002.9 -0.3-0.2
2016-Dec-02 12:00N 49°00' W 066°54'0 0.0 070 / 151002.3 -0.3-0.2
2016-Dec-02 11:00N 49°00' W 066°54'0 0.0 060 / 251001.5 -0.3-0.2
2016-Dec-02 10:00N 49°00' W 066°54'0 0.0 060 / 301001.2 -0.4-0.3
2016-Dec-02 09:00N 49°00' W 066°54'0 0.0 060 / 271001.2 -0.4-0.4
2016-Dec-02 08:00N 49°00' W 066°54'0 0.0 060 / 291000.7 -0.5-0.4
2016-Dec-02 07:00N 49°00' W 066°54'0 0.0 060 / 331000.2 -0.4-0.3
2016-Dec-02 06:00N 49°00' W 066°54'0 0.0 060 / 271000.0 -0.5-0.4
2016-Dec-02 05:00N 49°00' W 066°54'0 0.0 060 / 26999.9 -0.2-0.2
2016-Dec-02 04:00N 49°00' W 066°54'0 0.0 060 / 211000.1 0.1 0.2
2016-Dec-02 03:00N 49°00' W 066°54'0 0.0 070 / 181000.0 -0.0 0.1
2016-Dec-02 02:00N 49°00' W 066°54'0 0.0 070 / 181000.3 -0.1-0.0
2016-Dec-02 01:00N 49°00' W 066°54'0 0.0 060 / 221000.5 0.1 0.2
2016-Dec-02 00:00N 49°00' W 066°54'0 0.0 060 / 241000.7 0.1 0.2
2016-Dec-01 23:00N 49°00' W 066°54'0 0.0 060 / 211001.3 -0.0-0.0
2016-Dec-01 22:00N 49°00' W 066°54'0 0.0 060 / 211001.9 -0.2-0.1
2016-Dec-01 21:00N 49°00' W 066°54'0 0.0 060 / 251002.7 -0.2-0.1
2016-Dec-01 20:00N 49°00' W 066°54'0 0.0 060 / 241003.7 -0.2-0.2
2016-Dec-01 19:00N 49°00' W 066°54'0 0.0 060 / 181005.4 -0.7-0.7
2016-Dec-01 18:00N 49°00' W 066°54'0 0.0 060 / 151006.7 -0.8-0.7
2016-Dec-01 17:00N 49°00' W 066°54'0 0.0 060 / 181007.8 -0.7-0.7
2016-Dec-01 16:00N 49°00' W 066°54'0 0.0 090 / 61010.2 -0.3-0.9
2016-Dec-01 15:00N 49°00' W 066°54'0 0.0 150 / 21012.0 0.1-2.3
2016-Dec-01 14:00N 49°00' W 066°54'0 0.0 170 / 21013.0 -0.2-2.4
2016-Dec-01 13:00N 49°00' W 066°54'0 0.0 140 / 31013.8 -0.8-2.6
2016-Dec-01 12:00N 49°00' W 066°54'0 0.0 070 / 111014.4 -0.7-2.4
2016-Dec-01 11:00N 49°00' W 066°54'0 0.0 100 / 81015.1 -0.2-2.5
2016-Dec-01 10:00N 49°00' W 066°54'0 0.0 140 / 101016.6 -0.0-2.0
2016-Dec-01 09:00N 49°00' W 066°54'0 0.0 130 / 111017.5 0.4-1.9
2016-Dec-01 07:00N 49°00' W 066°54'0 0.0 100 / 61019.7 0.3-1.3
2016-Dec-01 06:00N 49°00' W 066°54'0 0.0 140 / 101019.7 1.0-1.5
2016-Dec-01 05:00N 49°00' W 066°54'0 0.0 100 / 81020.0 0.6-1.1
2016-Dec-01 04:00N 49°00' W 066°54'0 0.0 060 / 91021.1 1.0-0.7
2016-Dec-01 03:00N 49°00' W 066°54'0 0.0 140 / 91021.5 1.1-0.8
2016-Dec-01 01:00N 49°00' W 066°54'0 0.0 140 / 101022.3 0.9-1.1
2016-Dec-01 00:00N 49°00' W 066°54'0 0.0 120 / 81021.9 0.5-0.5
2016-Nov-30 23:00N 49°00' W 066°54'0 0.0 100 / 51022.4 0.5-0.2
2016-Nov-30 22:00N 49°00' W 066°54'0 0.0 120 / 31022.1 0.5 0.5
2016-Nov-30 21:00N 49°00' W 066°54'0 0.0 100 / 31021.4 1.0 1.0
2016-Nov-30 20:00N 49°00' W 066°54'0 0.0 090 / 61021.4 1.3 0.7
2016-Nov-30 19:00N 49°00' W 066°54'0 0.0 060 / 91021.0 1.5 1.3
2016-Nov-30 18:00N 49°00' W 066°54'0 0.0 060 / 81020.8 1.6 0.6
2016-Nov-30 17:00N 49°00' W 066°54'0 0.0 050 / 61020.9 1.1 0.3
2016-Nov-30 16:00N 49°00' W 066°54'0 0.0 050 / 31021.0 0.7 0.7
2016-Nov-30 15:00N 49°00' W 066°54'0 0.0 070 / 31021.0 -0.1-0.1
2016-Nov-30 14:00N 49°00' W 066°54'0 0.0 070 / 41020.8 -1.0-1.0
2016-Nov-30 13:00N 49°00' W 066°54'0 0.0 100 / 41020.3 -1.4-1.4
2016-Nov-30 12:00N 49°00' W 066°54'0 0.0 100 / 31020.1 -1.4-1.4
2016-Nov-30 11:00N 49°00' W 066°54'0 0.0 070 / 41019.6 -1.4-1.3
2016-Nov-30 10:00N 49°00' W 066°54'0 0.0 060 / 81019.4 -1.6-1.5
2016-Nov-30 08:00N 49°00' W 066°54'0 0.0 050 / 41019.9 -1.0-1.1
2016-Nov-30 07:00N 49°00' W 066°54'0 0.0 070 / 31020.6 -1.0-1.1
2016-Nov-30 05:00N 49°00' W 066°54'0 0.0 070 / 61020.7 -0.3-2.3
2016-Nov-30 04:00N 49°00' W 066°54'0 0.0 060 / 141021.2 -0.5-3.2
2016-Nov-30 03:00N 49°00' W 066°54'0 0.0 090 / 41021.7 -0.5-2.6
2016-Nov-30 02:00N 49°00' W 066°54'0 0.0 070 / 21022.7 -1.2-2.6
2016-Nov-30 01:00N 49°00' W 066°54'0 0.0 090 / 11023.2 -1.6-2.4
2016-Nov-30 00:00N 49°00' W 066°54'0 0.0 110 / 51023.8 -1.5-3.3
2016-Nov-29 23:00N 49°00' W 066°54'0 0.0 100 / 61023.4 -1.5-3.6
2016-Nov-29 22:00N 49°00' W 066°54'0 0.0 110 / 51023.6 -1.6-3.6
2016-Nov-29 21:00N 49°00' W 066°54'0 0.0 110 / 71023.6 -1.6-3.7
2016-Nov-29 20:00N 49°00' W 066°54'0 0.0 120 / 41023.1 -1.3-3.8
2016-Nov-29 19:00N 49°00' W 066°54'0 0.0 110 / 51024.1 -1.4-4.2
2016-Nov-29 18:00N 49°00' W 066°54'0 0.0 110 / 51023.9 -1.7-4.3
2016-Nov-29 17:00N 49°00' W 066°54'0 0.0 120 / 81024.4 -1.8-4.2
2016-Nov-29 16:00N 49°00' W 066°54'0 0.0 100 / 91024.8 -2.0-4.3
2016-Nov-29 15:00N 49°00' W 066°54'0 0.0 090 / 91025.1 -1.9-4.3
2016-Nov-29 14:00N 49°00' W 066°54'0 0.0 110 / 91025.3 -2.4-4.3
2016-Nov-29 13:00N 49°00' W 066°54'0 0.0 100 / 71024.9 -2.5-4.4
2016-Nov-29 12:00N 49°00' W 066°54'0 0.0 150 / 21025.0 -3.3-4.3
2016-Nov-29 11:00N 49°00' W 066°54'0 0.0 120 / 41023.9 -3.0-4.2
2016-Nov-29 10:00N 49°00' W 066°54'0 0.0 050 / 51023.7 -1.9-5.6
2016-Nov-29 08:00N 49°00' W 066°54'0 0.0 020 / 31022.5 -1.3-4.6
2016-Nov-29 07:00N 49°00' W 066°54'0 0.0 010 / 41022.3 -1.0-4.3
2016-Nov-29 06:00N 49°00' W 066°54'0 0.0 130 / 21022.0 -2.9-4.1
2016-Nov-29 05:00N 49°00' W 066°54'0 0.0 180 / 31021.7 -2.9-4.6
2016-Nov-29 04:00N 49°00' W 066°54'0 0.0 180 / 31021.3 -2.5-4.8
2016-Nov-29 03:00N 49°00' W 066°54'0 0.0 040 / 51020.2 -0.9-5.9
2016-Nov-29 02:00N 49°00' W 066°54'0 0.0 040 / 71019.2 -0.4-5.4
2016-Nov-29 01:00N 49°00' W 066°54'0 0.0 050 / 111018.3 0.2-4.9
2016-Nov-29 00:00N 49°00' W 066°54'0 0.0 040 / 51017.1 1.4-5.7
2016-Nov-28 23:00N 49°00' W 066°54'0 0.0 040 / 121016.2 2.2-5.4
2016-Nov-28 22:00N 49°00' W 066°54'0 0.0 160 / 21015.6 -0.5-2.3
2016-Nov-28 21:00N 49°00' W 066°54'0 0.0 180 / 31015.3 1.0-4.2
2016-Nov-28 20:00N 49°00' W 066°54'0 0.0 010 / 31014.5 4.4-5.4
2016-Nov-28 19:00N 49°00' W 066°54'0 0.0 360 / 31013.5 4.0-6.3
2016-Nov-28 18:00N 49°00' W 066°54'0 0.0 350 / 51012.9 3.5-7.3
2016-Nov-28 17:00N 49°00' W 066°54'0 0.0 350 / 71012.4 3.3-7.8
2016-Nov-28 16:00N 49°00' W 066°54'0 0.0 360 / 91012.2 2.7-7.1
2016-Nov-28 15:00N 49°00' W 066°54'0 0.0 350 / 81012.3 2.3-7.1
2016-Nov-28 14:00N 49°00' W 066°54'0 0.0 320 / 81012.1 2.1-3.9
2016-Nov-28 13:00N 49°00' W 066°54'0 0.0 310 / 51011.7 1.7-3.3
2016-Nov-28 12:00N 49°00' W 066°54'0 0.0 320 / 51011.6 1.6-3.5
2016-Nov-28 11:00N 49°00' W 066°54'0 0.0 320 / 41010.9 1.9-3.0
2016-Nov-28 10:00N 49°00' W 066°54'0 0.0 340 / 71010.0 2.6-3.2
2016-Nov-28 09:00N 49°00' W 066°54'0 0.0 350 / 91009.9 3.2-2.8
2016-Nov-28 08:00N 49°00' W 066°54'0 0.0 350 / 61009.9 2.6-2.0
2016-Nov-28 07:00N 49°00' W 066°54'0 0.0 350 / 41010.3 2.2-2.4
2016-Nov-28 06:00N 49°00' W 066°54'0 0.0 320 / 51010.2 1.8-3.0
2016-Nov-28 05:00N 49°00' W 066°54'0 0.0 320 / 41010.5 1.7-2.9
2016-Nov-28 04:00N 49°00' W 066°54'0 0.0 310 / 61010.7 1.5-2.4
2016-Nov-28 03:00N 49°00' W 066°54'0 0.0 310 / 51011.0 1.3-2.8
2016-Nov-28 02:00N 49°00' W 066°54'0 0.0 320 / 61011.9 1.3-2.5
2016-Nov-28 01:00N 49°00' W 066°54'0 0.0 330 / 21012.4 1.0-4.0
2016-Nov-28 00:00N 49°00' W 066°54'0 0.0 030 / 21013.3 1.0-5.4
2016-Nov-27 23:00N 49°00' W 066°54'0 0.0 040 / 21013.9 0.6-3.2
2016-Nov-27 22:00N 49°00' W 066°54'0 0.0 040 / 51014.5 0.2-1.7
2016-Nov-27 21:00N 49°00' W 066°54'0 0.0 040 / 81015.2 -0.1-1.6
2016-Nov-27 20:00N 49°00' W 066°54'0 0.0 040 / 91015.5 0.3-0.5
2016-Nov-27 19:00N 49°00' W 066°54'0 0.0 050 / 161015.4 0.4-0.3
2016-Nov-27 18:00N 49°00' W 066°54'0 0.0 070 / 171015.7 0.5-0.1
2016-Nov-27 17:00N 49°00' W 066°54'0 0.0 050 / 221016.1 0.7 0.6
2016-Nov-27 16:00N 49°00' W 066°54'0 0.0 050 / 191016.8 0.9 0.9
2016-Nov-27 15:00N 49°00' W 066°54'0 0.0 110 / 21017.8 0.4 0.5
2016-Nov-27 14:00N 49°00' W 066°54'0 0.0 190 / 31018.1 0.3 0.3
2016-Nov-27 13:00N 49°00' W 066°54'0 0.0 150 / 11018.5 0.4 0.4
2016-Nov-27 12:00N 49°00' W 066°54'0 0.0 130 / 21018.8 0.4 0.4
2016-Nov-27 11:00N 49°00' W 066°54'0 0.0 1019.2 0.8 0.8
2016-Nov-27 10:00N 49°00' W 066°54'0 0.0 190 / 31019.4 1.2 1.1
2016-Nov-27 09:00N 49°00' W 066°54'0 0.0 180 / 41019.4 1.2 1.1
2016-Nov-27 08:00N 49°00' W 066°54'0 0.0 150 / 21019.7 0.7 0.8
2016-Nov-27 07:00N 49°00' W 066°54'0 0.0 170 / 11020.1 1.0 1.1
2016-Nov-27 06:00N 49°00' W 066°54'0 0.0 170 / 11019.8 1.0 1.0
2016-Nov-27 05:00N 49°00' W 066°54'0 0.0 110 / 11020.0 1.1 1.2
2016-Nov-27 04:00N 49°00' W 066°54'0 0.0 080 / 21020.5 0.8 0.9
2016-Nov-27 03:00N 49°00' W 066°54'0 0.0 080 / 41020.9 0.3 0.4
2016-Nov-27 02:00N 49°00' W 066°54'0 0.0 1021.5 0.8 0.8
2016-Nov-27 01:00N 49°00' W 066°54'0 0.0 090 / 11021.7 0.6 0.6
2016-Nov-27 00:00N 49°00' W 066°54'0 0.0 120 / 41021.8 1.1 1.0
2016-Nov-26 23:00N 49°00' W 066°54'0 0.0 120 / 51022.0 1.0 1.0
2016-Nov-26 22:00N 49°00' W 066°54'0 0.0 120 / 51021.9 1.2 1.2
2016-Nov-26 21:00N 49°00' W 066°54'0 0.0 120 / 21021.6 1.2 1.1
2016-Nov-26 20:00N 49°00' W 066°54'0 0.0 080 / 31021.5 1.1 0.8
2016-Nov-26 19:00N 49°00' W 066°54'0 0.0 070 / 91021.3 1.0 0.9
2016-Nov-26 18:00N 49°00' W 066°54'0 0.0 050 / 91021.6 0.7 0.7
2016-Nov-26 17:00N 49°00' W 066°54'0 0.0 070 / 71022.1 0.6 0.5
2016-Nov-26 16:00N 49°00' W 066°54'0 0.0 060 / 101022.4 0.2 0.1
2016-Nov-26 15:00N 49°00' W 066°54'0 0.0 060 / 81023.0 -0.4-0.4
2016-Nov-26 14:00N 49°00' W 066°54'0 0.0 090 / 31023.1 -0.8-0.9
2016-Nov-26 13:00N 49°00' W 066°54'0 0.0 060 / 51023.3 -1.1-1.2
2016-Nov-26 12:00N 49°00' W 066°54'0 0.0 080 / 31023.3 -1.4-1.4
2016-Nov-26 11:00N 49°00' W 066°54'0 0.0 100 / 31023.3 -1.3-1.3
2016-Nov-26 10:00N 49°00' W 066°54'0 0.0 130 / 41023.3 -1.3-1.3
2016-Nov-26 09:00N 49°00' W 066°54'0 0.0 120 / 51023.3 -1.5-1.6
2016-Nov-26 08:00N 49°00' W 066°54'0 0.0 120 / 41023.3 -1.5-1.5
2016-Nov-26 07:00N 49°00' W 066°54'0 0.0 090 / 31023.6 -1.6-1.7
2016-Nov-26 06:00N 49°00' W 066°54'0 0.0 120 / 51023.7 -1.4-1.5
2016-Nov-26 05:00N 49°00' W 066°54'0 0.0 120 / 41023.8 -1.5-1.5
2016-Nov-26 04:00N 49°00' W 066°54'0 0.0 120 / 51024.2 -1.5-1.5
2016-Nov-26 03:00N 49°00' W 066°54'0 0.0 130 / 51024.4 -1.1-1.2
2016-Nov-26 02:00N 49°00' W 066°54'0 0.0 130 / 51025.1 -1.1-1.2
2016-Nov-26 01:00N 49°00' W 066°54'0 0.0 120 / 41025.3 -1.3-1.3
2016-Nov-26 00:00N 49°00' W 066°54'0 0.0 130 / 51025.6 -0.9-1.3
2016-Nov-25 23:00N 49°00' W 066°54'0 0.0 130 / 41025.8 -1.0-1.1
2016-Nov-25 22:00N 49°00' W 066°54'0 0.0 180 / 41026.0 -0.7-0.8
2016-Nov-25 21:00N 49°00' W 066°54'0 0.0 150 / 11026.0 -0.5-1.9
2016-Nov-25 20:00N 49°00' W 066°54'0 0.0 130 / 21026.1 -0.6-2.2
2016-Nov-25 19:00N 49°00' W 066°54'0 0.0 180 / 31026.4 -0.4-2.4
2016-Nov-25 18:00N 49°00' W 066°54'0 0.0 180 / 41027.1 -0.2-2.8
2016-Nov-25 17:00N 49°00' W 066°54'0 0.0 200 / 31027.7 -0.2-2.5
2016-Nov-25 16:00N 49°00' W 066°54'0 0.0 210 / 51028.3 -0.4-2.7
2016-Nov-25 15:00N 49°00' W 066°54'0 0.0 160 / 31029.1 -0.7-2.7
2016-Nov-25 14:00N 49°00' W 066°54'0 0.0 180 / 31029.4 -1.2-1.9
2016-Nov-25 13:00N 49°00' W 066°54'0 0.0 180 / 51029.4 -1.6-2.2
2016-Nov-25 12:00N 49°00' W 066°54'0 0.0 160 / 41029.4 -1.8-2.6
2016-Nov-25 11:00N 49°00' W 066°54'0 0.0 180 / 21029.3 -2.1-2.2
2016-Nov-25 10:00N 49°00' W 066°54'0 0.0 140 / 31029.2 -1.9-2.6
2016-Nov-25 09:00N 49°00' W 066°54'0 0.0 160 / 41029.4 -1.8-2.5
2016-Nov-25 08:00N 49°00' W 066°54'0 0.0 170 / 51029.4 -1.9-2.6
2016-Nov-25 07:00N 49°00' W 066°54'0 0.0 180 / 41029.6 -2.4-2.5
2016-Nov-25 06:00N 49°00' W 066°54'0 0.0 190 / 51029.7 -2.3-2.4
2016-Nov-25 05:00N 49°00' W 066°54'0 0.0 180 / 41029.7 -2.3-2.4
2016-Nov-25 04:00N 49°00' W 066°54'0 0.0 180 / 51029.7 -2.1-2.2
2016-Nov-25 03:00N 49°00' W 066°54'0 0.0 170 / 41029.6 -2.1-2.8
2016-Nov-25 02:00N 49°00' W 066°54'0 0.0 180 / 61029.7 -1.9-2.9
2016-Nov-25 01:00N 49°00' W 066°54'0 0.0 170 / 61029.9 -1.8-2.8
2016-Nov-25 00:00N 49°00' W 066°54'0 0.0 130 / 51029.7 -1.6-3.7
2016-Nov-24 23:00N 49°00' W 066°54'0 0.0 130 / 41029.7 -1.6-3.6
2016-Nov-24 22:00N 49°00' W 066°54'0 0.0 110 / 71029.5 -1.6-2.8
2016-Nov-24 21:00N 49°00' W 066°54'0 0.0 350 / 41029.3 -0.5-2.3
2016-Nov-24 20:00N 49°00' W 066°54'0 0.0 340 / 51029.2 -0.8-2.0
2016-Nov-24 19:00N 49°00' W 066°54'0 0.0 360 / 41028.9 -0.7-1.9
2016-Nov-24 18:00N 49°00' W 066°54'0 0.0 340 / 51028.8 -0.8-1.7
2016-Nov-24 17:00N 49°00' W 066°54'   010 / 51029.3 -0.2-1.5

Dump ship's entire track history